Time;durP1;ratioP1;P1;durP2;ratioP2;P2;SDS_P1;SDS_P2;PMS_P1;PMS_P2;Temp;Humidity;BMP_temperature;BMP_pressure;BME280_temperature;BME280_humidity;BME280_pressure;Samples;Min_cycle;Max_cycle;Signal;HPM_P1;HPM_P2
2024/02/23 00:02:05;;;;;;;5.03;1.00;;;;;;;8.82;100.00;97864.38;5007591;28;20038;-83
2024/02/23 00:04:31;;;;;;;;;;;;;;;8.81;100.00;97854.81;5006611;28;20034;-82
2024/02/23 00:06:56;;;;;;;3.97;1.00;;;;;;;8.79;100.00;97878.34;4976730;28;19917;-80
2024/02/23 00:09:24;;;;;;;2.75;0.82;;;;;;;8.74;100.00;97873.25;4987169;28;20038;-77
2024/02/23 00:11:50;;;;;;;3.63;0.82;;;;;;;8.68;100.00;97869.19;5008645;28;20084;-82
2024/02/23 00:14:20;;;;;;;4.55;1.65;;;;;;;8.59;100.00;97881.81;5005482;28;20046;-78
2024/02/23 00:16:45;;;;;;;2.92;0.85;;;;;;;8.52;100.00;97902.88;5019330;28;20045;-79
2024/02/23 00:19:11;;;;;;;2.90;1.27;;;;;;;8.47;100.00;97895.88;4982233;28;20033;-78
2024/02/23 00:21:38;;;;;;;3.80;0.80;;;;;;;8.36;100.00;97906.13;5008342;28;20049;-79
2024/02/23 00:24:05;;;;;;;1.77;1.10;;;;;;;8.32;100.00;97901.72;4997790;28;20468;-78
2024/02/23 00:26:31;;;;;;;;;;;;;;;8.31;100.00;97898.28;5003434;28;20121;-77
2024/02/23 00:28:57;;;;;;;2.05;0.70;;;;;;;8.27;100.00;97892.06;5003743;28;19960;-78
2024/02/23 00:31:23;;;;;;;2.17;0.65;;;;;;;8.24;100.00;97902.56;4986621;28;20084;-76
2024/02/23 00:33:48;;;;;;;0.90;0.60;;;;;;;8.20;100.00;97897.13;4999287;28;20042;-76
2024/02/23 00:36:14;;;;;;;1.85;0.93;;;;;;;8.18;100.00;97893.97;5000067;28;20108;-79
2024/02/23 00:38:40;;;;;;;1.17;0.60;;;;;;;8.14;100.00;97903.75;4995955;28;20093;-78
2024/02/23 00:41:06;;;;;;;2.65;0.85;;;;;;;8.14;100.00;97896.53;4988634;28;20062;-79
2024/02/23 00:43:39;;;;;;;1.08;0.70;;;;;;;8.09;100.00;97903.91;4978996;28;20116;-78
2024/02/23 00:46:06;;;;;;;2.38;0.80;;;;;;;8.13;100.00;97923.50;5006285;28;20037;-80
2024/02/23 00:48:32;;;;;;;1.30;0.60;;;;;;;8.15;100.00;97924.75;4996146;28;20048;-81
2024/02/23 00:50:58;;;;;;;2.33;0.73;;;;;;;8.11;100.00;97931.81;5005436;28;20121;-81
2024/02/23 00:53:24;;;;;;;2.25;0.60;;;;;;;8.07;100.00;97928.22;5007517;28;20065;-81
2024/02/23 00:55:49;;;;;;;2.20;0.70;;;;;;;8.00;100.00;97959.16;4989721;28;20372;-80
2024/02/23 00:58:15;;;;;;;4.07;1.33;;;;;;;7.89;100.00;97980.81;4998071;28;20037;-81
2024/02/23 01:00:41;;;;;;;2.35;0.70;;;;;;;7.80;100.00;98006.72;5003681;28;20404;-79
2024/02/23 01:03:07;;;;;;;3.88;1.15;;;;;;;7.31;100.00;98042.63;4999415;28;20060;-86
2024/02/23 01:05:33;;;;;;;0.75;0.40;;;;;;;6.81;100.00;98059.78;5000453;28;20096;-79
2024/02/23 01:08:00;;;;;;;0.80;0.50;;;;;;;6.47;100.00;98033.13;4997571;28;20033;-79
2024/02/23 01:10:27;;;;;;;0.70;0.30;;;;;;;6.12;100.00;98074.72;4986551;28;20045;-79
2024/02/23 01:12:52;;;;;;;3.42;0.52;;;;;;;5.88;100.00;98085.63;5005961;28;20065;-80
2024/02/23 01:15:18;;;;;;;0.95;0.52;;;;;;;5.81;100.00;98087.94;4988935;28;20463;-82
2024/02/23 01:17:44;;;;;;;0.60;0.30;;;;;;;5.78;100.00;98104.47;4983735;28;20495;-83
2024/02/23 01:20:09;;;;;;;1.35;0.60;;;;;;;5.73;100.00;98102.72;4979843;28;20033;-79
2024/02/23 01:22:35;;;;;;;;;;;;;;;5.78;100.00;98115.09;5008606;28;20026;-76
2024/02/23 01:25:01;;;;;;;0.65;0.30;;;;;;;5.75;100.00;98124.44;5004919;28;20530;-79
2024/02/23 01:27:26;;;;;;;1.05;0.50;;;;;;;5.71;100.00;98126.16;5006613;28;20116;-79
2024/02/23 01:29:52;;;;;;;1.25;0.50;;;;;;;5.68;100.00;98124.84;5006601;28;20044;-79
2024/02/23 01:32:17;;;;;;;1.10;0.85;;;;;;;5.68;100.00;98137.34;5003538;28;20034;-79
2024/02/23 01:34:43;;;;;;;1.70;0.60;;;;;;;5.64;100.00;98144.38;5009118;28;20427;-81
2024/02/23 01:37:09;;;;;;;1.25;0.90;;;;;;;5.65;100.00;98154.69;4989832;28;20128;-78
2024/02/23 01:39:35;;;;;;;1.20;0.52;;;;;;;5.64;100.00;98150.47;5012649;28;20041;-84
2024/02/23 01:42:01;;;;;;;1.00;0.50;;;;;;;5.63;100.00;98194.03;4991140;28;20034;-81
2024/02/23 01:44:27;;;;;;;1.90;0.63;;;;;;;5.62;100.00;98187.16;5010704;28;20091;-84
2024/02/23 01:46:52;;;;;;;1.65;0.50;;;;;;;5.60;100.00;98199.13;5017804;28;20636;-79
2024/02/23 01:49:18;;;;;;;1.90;0.98;;;;;;;5.62;100.00;98208.41;5010636;28;20045;-79
2024/02/23 01:51:43;;;;;;;0.63;0.40;;;;;;;5.61;100.00;98208.66;5010496;28;20046;-81
2024/02/23 01:54:10;;;;;;;1.70;0.88;;;;;;;5.62;100.00;98226.97;4991777;28;20038;-82
2024/02/23 01:56:36;;;;;;;1.23;0.60;;;;;;;5.66;100.00;98235.91;4998358;28;20072;-79
2024/02/23 01:59:05;;;;;;;0.70;0.30;;;;;;;5.65;100.00;98239.66;5016117;28;20120;-89
2024/02/23 02:01:31;;;;;;;0.80;0.55;;;;;;;5.67;100.00;98252.63;5016327;28;20515;-77
2024/02/23 02:03:58;;;;;;;1.33;0.80;;;;;;;5.68;100.00;98264.81;5024804;28;20034;-77
2024/02/23 02:06:24;;;;;;;1.65;0.80;;;;;;;5.68;100.00;98278.88;5009605;28;20061;-80
2024/02/23 02:08:50;;;;;;;1.10;0.50;;;;;;;5.72;100.00;98293.13;4994000;28;20095;-78
2024/02/23 02:11:16;;;;;;;;;;;;;;;5.70;100.00;98300.63;5013302;28;20037;-78
2024/02/23 02:13:42;;;;;;;1.25;0.70;;;;;;;5.71;100.00;98307.50;5007236;28;19921;-79
2024/02/23 02:16:08;;;;;;;1.20;0.68;;;;;;;5.72;100.00;98329.53;5004279;28;20826;-78
2024/02/23 02:18:33;;;;;;;0.65;0.30;;;;;;;5.70;100.00;98324.53;4991358;28;20072;-78
2024/02/23 02:21:00;;;;;;;1.45;0.20;;;;;;;5.73;100.00;98333.75;5005883;28;20049;-80
2024/02/23 02:23:26;;;;;;;0.70;0.30;;;;;;;5.72;100.00;98340.16;5007400;28;20133;-81
2024/02/23 02:25:55;;;;;;;0.70;0.40;;;;;;;5.69;100.00;98341.53;5006487;28;20044;-81
2024/02/23 02:28:22;;;;;;;0.85;0.60;;;;;;;5.67;100.00;98351.66;5001891;28;20041;-79
2024/02/23 02:30:54;;;;;;;1.63;0.30;;;;;;;5.63;100.00;98357.88;5007517;28;20041;-79
2024/02/23 02:33:21;;;;;;;0.90;0.70;;;;;;;5.56;100.00;98355.59;4993370;28;20463;-79
2024/02/23 02:35:47;;;;;;;0.57;0.30;;;;;;;5.54;100.00;98386.16;5031592;28;20030;-82
2024/02/23 02:38:13;;;;;;;1.23;0.82;;;;;;;5.49;100.00;98379.09;4994126;28;20042;-80
2024/02/23 02:40:39;;;;;;;0.55;0.30;;;;;;;5.47;100.00;98391.84;5007793;28;20033;-81
2024/02/23 02:43:05;;;;;;;0.63;0.35;;;;;;;5.45;100.00;98402.00;5009607;28;20030;-78
2024/02/23 02:45:31;;;;;;;;;;;;;;;5.47;100.00;98419.19;4988589;28;20495;-79
2024/02/23 02:47:56;;;;;;;0.38;0.20;;;;;;;5.45;100.00;98431.19;4986515;28;20021;-84
2024/02/23 02:50:22;;;;;;;0.85;0.73;;;;;;;5.45;100.00;98436.50;5013224;28;20125;-79
2024/02/23 02:52:48;;;;;;;1.10;0.40;;;;;;;5.40;100.00;98442.69;5014064;28;20116;-79
2024/02/23 02:55:13;;;;;;;0.90;0.68;;;;;;;5.39;100.00;98448.28;5005892;28;20030;-79
2024/02/23 02:57:39;;;;;;;0.50;0.30;;;;;;;5.33;100.00;98465.38;5005174;28;20042;-82
2024/02/23 03:00:05;;;;;;;0.65;0.45;;;;;;;5.30;100.00;98472.06;5006675;28;20038;-80
2024/02/23 03:02:32;;;;;;;1.83;0.43;;;;;;;5.26;100.00;98473.69;5011416;28;20044;-80
2024/02/23 03:04:57;;;;;;;1.33;0.40;;;;;;;5.25;100.00;98487.25;4979259;28;20040;-80
2024/02/23 03:07:23;;;;;;;1.30;0.65;;;;;;;5.22;100.00;98485.19;4991257;28;20608;-77
2024/02/23 03:09:50;;;;;;;1.85;0.30;;;;;;;5.20;100.00;98504.03;4993176;28;20046;-81
2024/02/23 03:12:17;;;;;;;1.70;0.70;;;;;;;5.14;100.00;98507.84;5023855;28;20119;-83
2024/02/23 03:14:42;;;;;;;1.20;0.55;;;;;;;5.06;100.00;98514.59;4992336;28;20045;-84
2024/02/23 03:17:11;;;;;;;0.68;0.40;;;;;;;4.99;100.00;98518.69;5000639;28;20128;-83
2024/02/23 03:19:37;;;;;;;1.50;0.45;;;;;;;4.97;100.00;98531.44;5022767;28;20037;-83
2024/02/23 03:22:03;;;;;;;1.60;0.45;;;;;;;4.97;100.00;98532.22;5010422;28;20042;-82
2024/02/23 03:24:30;;;;;;;1.15;0.55;;;;;;;4.92;100.00;98538.38;5012939;28;20088;-83
2024/02/23 03:26:55;;;;;;;0.65;0.40;;;;;;;4.94;100.00;98519.53;5013303;28;20041;-82
2024/02/23 03:29:24;;;;;;;0.85;0.60;;;;;;;4.96;100.00;98533.31;5001140;28;20041;-84
2024/02/23 03:31:50;;;;;;;1.15;0.38;;;;;;;4.96;100.00;98545.78;5014664;28;20025;-84
2024/02/23 03:34:16;;;;;;;;;;;;;;;4.93;100.00;98547.91;5011954;28;20038;-83
2024/02/23 03:36:41;;;;;;;1.60;0.50;;;;;;;4.96;100.00;98567.78;5021600;28;19916;-85
2024/02/23 03:39:07;;;;;;;1.45;0.40;;;;;;;4.95;100.00;98557.47;5003641;28;20121;-82
2024/02/23 03:41:33;;;;;;;1.60;0.30;;;;;;;4.92;100.00;98542.91;5020532;28;20037;-86
2024/02/23 03:43:58;;;;;;;1.13;0.68;;;;;;;4.88;100.00;98555.19;5012620;28;20030;-83
2024/02/23 03:46:24;;;;;;;1.00;0.60;;;;;;;4.84;100.00;98554.94;5017028;28;20050;-83
2024/02/23 03:48:50;;;;;;;1.00;0.40;;;;;;;4.78;100.00;98555.28;5013583;28;20031;-83
2024/02/23 03:51:16;;;;;;;0.95;0.35;;;;;;;4.75;100.00;98563.84;5009595;28;20117;-84
2024/02/23 03:53:42;;;;;;;2.10;0.20;;;;;;;4.70;100.00;98562.03;5015101;28;20121;-83
2024/02/23 03:56:08;;;;;;;1.45;0.40;;;;;;;4.66;100.00;98574.25;5020427;28;20084;-83
2024/02/23 03:58:33;;;;;;;;;;;;;;;4.61;100.00;98561.88;5020062;28;20041;-84
2024/02/23 04:00:59;;;;;;;0.98;0.50;;;;;;;4.61;100.00;98571.69;5012880;28;19955;-82
2024/02/23 04:03:25;;;;;;;2.08;0.63;;;;;;;4.59;100.00;98577.25;5017599;28;20065;-83
2024/02/23 04:05:50;;;;;;;0.98;0.47;;;;;;;4.58;100.00;98598.75;5001934;28;20033;-81
2024/02/23 04:08:16;;;;;;;2.70;0.50;;;;;;;4.55;100.00;98605.41;5024100;28;20060;-83
2024/02/23 04:10:41;;;;;;;1.10;0.40;;;;;;;4.54;100.00;98603.84;5011682;28;20026;-83
2024/02/23 04:13:07;;;;;;;1.05;0.40;;;;;;;4.50;100.00;98613.41;4994815;28;20034;-84
2024/02/23 04:15:33;;;;;;;3.67;0.32;;;;;;;4.51;100.00;98633.53;5020949;28;20038;-86
2024/02/23 04:17:58;;;;;;;1.38;0.50;;;;;;;4.48;100.00;98634.13;5027668;28;20120;-84
2024/02/23 04:20:24;;;;;;;1.67;0.82;;;;;;;4.51;100.00;98636.19;5002626;28;20029;-80
2024/02/23 04:22:50;;;;;;;1.10;0.50;;;;;;;4.48;100.00;98636.75;5020618;28;20077;-83
2024/02/23 04:25:16;;;;;;;1.92;0.45;;;;;;;4.47;100.00;98640.50;5011103;28;20026;-82
2024/02/23 04:27:43;;;;;;;2.83;0.70;;;;;;;4.45;100.00;98639.16;4994208;28;20030;-83
2024/02/23 04:30:09;;;;;;;3.10;0.60;;;;;;;4.40;100.00;98645.31;5006831;28;20104;-81
2024/02/23 04:32:35;;;;;;;1.08;0.55;;;;;;;4.40;100.00;98653.25;5002183;28;20046;-82
2024/02/23 04:35:01;;;;;;;0.95;0.50;;;;;;;4.44;100.00;98656.16;5009617;28;20095;-80
2024/02/23 04:37:27;;;;;;;;;;;;;;;4.46;100.00;98668.03;5022289;28;20423;-82
2024/02/23 04:39:53;;;;;;;1.55;0.70;;;;;;;4.48;100.00;98679.16;4999706;28;19928;-85
2024/02/23 04:42:18;;;;;;;2.05;0.93;;;;;;;4.51;100.00;98662.69;5015473;28;20054;-82
2024/02/23 04:44:44;;;;;;;7.65;0.80;;;;;;;4.52;100.00;98664.28;5005773;28;20064;-82
2024/02/23 04:47:10;;;;;;;3.00;0.80;;;;;;;4.56;100.00;98672.47;4981082;28;20048;-83
2024/02/23 04:49:35;;;;;;;2.72;0.70;;;;;;;4.57;100.00;98688.09;5008130;28;20045;-83
2024/02/23 04:52:01;;;;;;;3.58;1.10;;;;;;;4.56;100.00;98685.72;5008196;28;20120;-85
2024/02/23 04:54:27;;;;;;;1.85;1.38;;;;;;;4.55;100.00;98689.44;5010442;28;20508;-84
2024/02/23 04:56:52;;;;;;;4.35;0.93;;;;;;;4.54;100.00;98682.53;5013223;28;20390;-82
2024/02/23 04:59:18;;;;;;;4.22;1.05;;;;;;;4.54;100.00;98699.25;5007197;28;20037;-82
2024/02/23 05:01:44;;;;;;;4.95;0.75;;;;;;;4.51;100.00;98705.09;5027361;28;20030;-83
2024/02/23 05:04:10;;;;;;;6.05;1.10;;;;;;;4.46;100.00;98702.50;4981307;28;20030;-84
2024/02/23 05:06:35;;;;;;;3.08;0.73;;;;;;;4.44;100.00;98709.94;5013799;28;20037;-85
2024/02/23 05:09:02;;;;;;;3.80;1.02;;;;;;;4.39;100.00;98696.72;4990807;28;20092;-83
2024/02/23 05:11:28;;;;;;;2.80;1.10;;;;;;;4.38;100.00;98700.44;5010796;28;20034;-87
2024/02/23 05:13:54;;;;;;;3.08;1.05;;;;;;;4.41;100.00;98705.22;5011743;28;20037;-83
2024/02/23 05:16:20;;;;;;;2.60;1.05;;;;;;;4.44;100.00;98719.75;5017320;28;20025;-83
2024/02/23 05:18:46;;;;;;;4.65;0.90;;;;;;;4.41;100.00;98710.50;4997033;28;20026;-84
2024/02/23 05:21:14;;;;;;;6.85;1.20;;;;;;;4.38;100.00;98716.34;5018627;28;20036;-85
2024/02/23 05:23:39;;;;;;;3.80;1.30;;;;;;;4.37;100.00;98709.47;5012285;28;20037;-84
2024/02/23 05:26:05;;;;;;;3.55;1.10;;;;;;;4.39;100.00;98723.22;5009149;28;20030;-83
2024/02/23 05:28:31;;;;;;;4.43;1.15;;;;;;;4.40;100.00;98732.75;5017513;28;20026;-84
2024/02/23 05:30:56;;;;;;;3.70;1.20;;;;;;;4.38;100.00;98721.66;5012973;28;20084;-84
2024/02/23 05:33:22;;;;;;;3.60;1.15;;;;;;;4.37;100.00;98736.75;5010929;28;20069;-84
2024/02/23 05:35:48;;;;;;;;;;;;;;;4.36;100.00;98745.00;5000960;28;20077;-82
2024/02/23 05:38:15;;;;;;;4.07;1.30;;;;;;;4.34;100.00;98736.53;4985103;28;20401;-85
2024/02/23 05:40:41;;;;;;;3.75;1.20;;;;;;;4.34;100.00;98752.44;5013558;28;20490;-84
2024/02/23 05:43:06;;;;;;;2.13;1.00;;;;;;;4.35;100.00;98754.81;5012570;28;20092;-83
2024/02/23 05:45:32;;;;;;;2.58;1.20;;;;;;;4.41;100.00;98774.13;5017234;28;20436;-83
2024/02/23 05:47:58;;;;;;;3.10;0.98;;;;;;;4.41;100.00;98763.53;5019771;28;20029;-83
2024/02/23 05:50:24;;;;;;;2.80;1.17;;;;;;;4.42;100.00;98759.81;5001368;28;20554;-86
2024/02/23 05:52:49;;;;;;;4.00;1.20;;;;;;;4.37;100.00;98768.56;5020992;28;20037;-83
2024/02/23 05:55:15;;;;;;;2.88;0.88;;;;;;;4.37;100.00;98778.38;4999758;28;20037;-84
2024/02/23 05:57:42;;;;;;;4.20;1.25;;;;;;;4.34;100.00;98790.34;4999412;28;20041;-84
2024/02/23 06:00:08;;;;;;;5.80;1.08;;;;;;;4.33;100.00;98796.69;4993432;28;20487;-83
2024/02/23 06:02:43;;;;;;;5.30;1.15;;;;;;;4.33;100.00;98798.53;5005039;28;20034;-85
2024/02/23 06:05:09;;;;;;;3.92;0.98;;;;;;;4.32;100.00;98808.34;5019598;28;20095;-85
2024/02/23 06:07:34;;;;;;;1.48;0.80;;;;;;;4.33;100.00;98825.81;5025705;28;20124;-84
2024/02/23 06:10:00;;;;;;;3.83;0.80;;;;;;;4.37;100.00;98818.13;5009516;28;20026;-83
2024/02/23 06:12:27;;;;;;;4.15;1.00;;;;;;;4.35;100.00;98834.31;5019355;28;20484;-84
2024/02/23 06:14:52;;;;;;;3.20;0.90;;;;;;;4.34;100.00;98837.25;5006304;28;20542;-87
2024/02/23 06:17:18;;;;;;;2.65;0.90;;;;;;;4.33;100.00;98848.88;4998107;28;20137;-85
2024/02/23 06:19:44;;;;;;;2.22;0.70;;;;;;;4.30;100.00;98854.75;4993140;28;20048;-85
2024/02/23 06:22:10;;;;;;;2.67;0.90;;;;;;;4.32;100.00;98856.06;5010328;28;20026;-85
2024/02/23 06:24:36;;;;;;;;;;;;;;;4.29;100.00;98864.56;5025024;28;20064;-87
2024/02/23 06:27:03;;;;;;;2.58;0.90;;;;;;;4.24;100.00;98861.13;5014150;28;19948;-84
2024/02/23 06:29:29;;;;;;;2.58;0.95;;;;;;;4.24;100.00;98869.88;5011081;28;20041;-86
2024/02/23 06:31:55;;;;;;;4.13;0.98;;;;;;;4.19;100.00;98879.72;5013325;28;20434;-85
2024/02/23 06:34:21;;;;;;;2.63;0.70;;;;;;;4.20;100.00;98883.94;5008810;28;20368;-83
2024/02/23 06:36:47;;;;;;;2.70;1.10;;;;;;;4.16;100.00;98890.88;5013197;28;20037;-85
2024/02/23 06:39:13;;;;;;;2.20;1.02;;;;;;;4.13;100.00;98894.03;5017513;28;20475;-85
2024/02/23 06:41:39;;;;;;;2.30;1.20;;;;;;;4.11;100.00;98900.41;5009463;28;20049;-82
2024/02/23 06:44:05;;;;;;;3.53;1.17;;;;;;;4.13;100.00;98907.28;5011072;28;20021;-83
2024/02/23 06:46:31;;;;;;;5.00;1.33;;;;;;;4.10;100.00;98906.78;5007336;28;20034;-82
2024/02/23 06:48:56;;;;;;;2.75;1.45;;;;;;;4.10;100.00;98904.13;5008006;28;20510;-86
2024/02/23 06:51:22;;;;;;;1.70;1.17;;;;;;;4.14;100.00;98917.63;5009604;28;20038;-85
2024/02/23 06:53:48;;;;;;;2.42;1.00;;;;;;;4.15;100.00;98926.38;5011208;28;20148;-84
2024/02/23 06:56:14;;;;;;;3.38;1.40;;;;;;;4.14;100.00;98925.59;5013198;28;20041;-86
2024/02/23 06:58:41;;;;;;;3.33;1.60;;;;;;;4.16;100.00;98930.59;5008438;28;20085;-85
2024/02/23 07:01:11;;;;;;;4.22;1.30;;;;;;;4.19;100.00;98943.28;5016666;28;20467;-85
2024/02/23 07:03:37;;;;;;;2.92;1.35;;;;;;;4.21;100.00;98938.53;5014267;28;20045;-84
2024/02/23 07:06:03;;;;;;;4.82;1.50;;;;;;;4.22;100.00;98948.84;4994674;28;20852;-85
2024/02/23 07:08:29;;;;;;;4.53;1.55;;;;;;;4.28;100.00;98955.72;5013673;28;20088;-84
2024/02/23 07:10:55;;;;;;;;;;;;;;;4.32;100.00;98954.09;5013868;28;20022;-86
2024/02/23 07:13:21;;;;;;;4.80;1.38;;;;;;;4.37;100.00;98963.91;5010564;28;20164;-83
2024/02/23 07:15:46;;;;;;;2.97;1.33;;;;;;;4.43;100.00;98970.78;5007282;28;20030;-85
2024/02/23 07:18:12;;;;;;;4.43;1.23;;;;;;;4.52;100.00;98974.44;4986614;28;20029;-84
2024/02/23 07:20:38;;;;;;;3.67;1.40;;;;;;;4.60;100.00;98971.19;5007926;28;20031;-85
2024/02/23 07:23:05;;;;;;;4.07;1.33;;;;;;;4.70;100.00;98974.88;5016447;28;20040;-83
2024/02/23 07:25:30;;;;;;;5.15;1.70;;;;;;;4.76;100.00;98963.19;5011487;28;20084;-84
2024/02/23 07:27:56;;;;;;;3.83;1.40;;;;;;;4.82;100.00;98970.03;5016628;28;20029;-84
2024/02/23 07:30:22;;;;;;;3.92;1.23;;;;;;;4.86;100.00;98971.06;5012218;28;20053;-84
2024/02/23 07:32:48;;;;;;;3.25;1.35;;;;;;;4.77;100.00;98957.59;5015659;28;20608;-82
2024/02/23 07:35:13;;;;;;;3.78;1.52;;;;;;;4.78;100.00;98963.69;5014720;28;20084;-84
2024/02/23 07:37:39;;;;;;;4.55;1.42;;;;;;;4.78;100.00;98974.31;5010351;28;20376;-84
2024/02/23 07:40:05;;;;;;;5.15;1.20;;;;;;;4.81;100.00;98979.03;5018946;28;20052;-84
2024/02/23 07:42:32;;;;;;;4.22;1.27;;;;;;;4.81;100.00;98979.03;5012031;28;20073;-85
2024/02/23 07:44:58;;;;;;;7.93;1.27;;;;;;;4.78;100.00;98980.41;5013917;28;20034;-85
2024/02/23 07:47:26;;;;;;;6.40;1.20;;;;;;;4.79;100.00;98978.53;5008818;28;20730;-84
2024/02/23 07:49:53;;;;;;;4.15;1.17;;;;;;;4.80;100.00;98982.75;5007699;28;20065;-83
2024/02/23 07:52:19;;;;;;;9.65;1.40;;;;;;;4.81;100.00;98997.59;4999373;28;20546;-84
2024/02/23 07:54:45;;;;;;;2.72;1.10;;;;;;;4.82;100.00;98993.91;5014817;28;20487;-84
2024/02/23 07:57:11;;;;;;;4.53;1.33;;;;;;;4.84;100.00;98992.56;5009321;28;20033;-80
2024/02/23 07:59:36;;;;;;;4.15;1.20;;;;;;;4.87;100.00;99001.81;5011251;28;20050;-82
2024/02/23 08:02:02;;;;;;;7.80;1.40;;;;;;;4.88;100.00;99000.78;4993232;28;20443;-83
2024/02/23 08:04:28;;;;;;;5.15;1.17;;;;;;;4.89;100.00;99008.47;5003860;28;20117;-84
2024/02/23 08:06:54;;;;;;;4.93;1.17;;;;;;;4.92;100.00;99009.75;5004954;28;20109;-82
2024/02/23 08:09:22;;;;;;;4.05;0.93;;;;;;;4.93;100.00;99020.09;5000054;28;20061;-80
2024/02/23 08:11:47;;;;;;;3.10;1.20;;;;;;;5.04;100.00;99020.03;5010594;28;20041;-83
2024/02/23 08:14:13;;;;;;;4.28;1.13;;;;;;;5.06;100.00;99026.66;4998727;28;20407;-82
2024/02/23 08:16:39;;;;;;;4.30;1.30;;;;;;;5.14;100.00;99030.56;5013494;28;20038;-84
2024/02/23 08:19:04;;;;;;;6.55;1.08;;;;;;;5.19;100.00;99033.22;5020647;28;20029;-83
2024/02/23 08:21:30;;;;;;;4.53;1.40;;;;;;;5.30;100.00;99021.47;4985172;28;20873;-82
2024/02/23 08:23:55;;;;;;;5.68;1.33;;;;;;;5.41;100.00;99030.13;5013602;28;20527;-84
2024/02/23 08:26:22;;;;;;;3.40;1.00;;;;;;;5.47;100.00;99035.13;4997309;28;20076;-82
2024/02/23 08:28:47;;;;;;;;;;;;;;;5.57;100.00;99038.78;5015290;28;20030;-81
2024/02/23 08:31:13;;;;;;;5.05;1.10;;;;;;;5.59;100.00;99040.09;5012732;28;19917;-82
2024/02/23 08:33:38;;;;;;;3.55;1.48;;;;;;;5.69;100.00;99041.84;5007524;28;20045;-80
2024/02/23 08:36:05;;;;;;;4.90;1.20;;;;;;;5.79;100.00;99051.63;5014786;28;20120;-78
2024/02/23 08:38:34;;;;;;;6.03;1.23;;;;;;;5.78;100.00;99050.03;5023708;28;20644;-79
2024/02/23 08:40:59;;;;;;;3.33;1.10;;;;;;;5.83;100.00;99052.66;4996818;28;20044;-80
2024/02/23 08:43:25;;;;;;;4.72;1.30;;;;;;;5.77;100.00;99054.56;5004668;28;20042;-80
2024/02/23 08:45:51;;;;;;;5.07;1.20;;;;;;;5.81;100.00;99055.56;5006137;28;20034;-78
2024/02/23 08:48:20;;;;;;;4.15;1.30;;;;;;;5.70;100.00;99056.75;5011159;28;20120;-86
2024/02/23 08:50:45;;;;;;;4.45;1.30;;;;;;;5.76;100.00;99058.28;4976946;28;20034;-79
2024/02/23 08:53:11;;;;;;;5.50;1.35;;;;;;;5.87;100.00;99077.56;5007529;28;20041;-80
2024/02/23 08:55:37;;;;;;;7.53;1.35;;;;;;;5.89;100.00;99073.59;5004335;28;20746;-79
2024/02/23 08:58:02;;;;;;;4.65;1.00;;;;;;;5.91;100.00;99074.13;5004805;28;20107;-80
2024/02/23 09:00:28;;;;;;;5.18;1.20;;;;;;;5.90;100.00;99082.34;5006617;28;20034;-79
2024/02/23 09:02:54;;;;;;;4.32;1.23;;;;;;;6.01;100.00;99095.28;4972013;28;20088;-79
2024/02/23 09:05:20;;;;;;;7.15;1.13;;;;;;;6.04;100.00;99085.97;5004559;28;20507;-80
2024/02/23 09:07:46;;;;;;;5.95;1.58;;;;;;;6.04;100.00;99091.28;5006527;28;20044;-80
2024/02/23 09:10:12;;;;;;;2.72;1.05;;;;;;;6.09;100.00;99096.53;5002734;28;20284;-78
2024/02/23 09:12:38;;;;;;;7.05;1.60;;;;;;;6.09;100.00;99101.84;4998265;28;20748;-80
2024/02/23 09:15:05;;;;;;;2.80;1.20;;;;;;;6.08;100.00;99108.25;5007207;28;20030;-79
2024/02/23 09:17:31;;;;;;;4.68;1.30;;;;;;;6.13;100.00;99102.09;5007210;28;20112;-79
2024/02/23 09:19:56;;;;;;;4.53;1.27;;;;;;;6.16;100.00;99107.63;5010235;28;20112;-78
2024/02/23 09:22:22;;;;;;;3.90;1.13;;;;;;;6.09;100.00;99112.47;5001894;28;20034;-79
2024/02/23 09:24:48;;;;;;;4.63;1.40;;;;;;;6.06;100.00;99114.91;5017827;28;20554;-79
2024/02/23 09:27:14;;;;;;;6.72;1.52;;;;;;;6.09;100.00;99119.66;5000204;28;20117;-78
2024/02/23 09:29:41;;;;;;;5.18;1.30;;;;;;;6.12;100.00;99135.06;5001962;28;20065;-80
2024/02/23 09:32:07;;;;;;;6.05;1.42;;;;;;;6.09;100.00;99135.59;5003850;28;20485;-78
2024/02/23 09:34:34;;;;;;;4.80;1.58;;;;;;;6.09;100.00;99147.03;5004572;28;20042;-78
2024/02/23 09:37:01;;;;;;;4.93;1.40;;;;;;;6.10;100.00;99148.63;5003071;28;20053;-79
2024/02/23 09:39:30;;;;;;;2.55;1.08;;;;;;;6.14;100.00;99143.53;5006517;28;20048;-77
2024/02/23 09:41:59;;;;;;;4.35;1.20;;;;;;;6.15;100.00;99145.91;5002896;28;20045;-78
2024/02/23 09:44:33;;;;;;;4.82;1.27;;;;;;;6.18;100.00;99156.00;5007402;28;20469;-79
2024/02/23 09:47:01;;;;;;;4.32;1.40;;;;;;;6.20;100.00;99161.03;4990356;28;20045;-79
2024/02/23 09:49:27;;;;;;;6.90;1.40;;;;;;;6.23;100.00;99160.47;4998049;28;20038;-78
2024/02/23 09:51:54;;;;;;;4.07;1.40;;;;;;;6.26;100.00;99174.00;4998679;28;20045;-79
2024/02/23 09:54:20;;;;;;;6.40;1.63;;;;;;;6.26;100.00;99174.00;5002182;28;20176;-77
2024/02/23 09:56:46;;;;;;;5.40;1.30;;;;;;;6.31;100.00;99175.84;5002527;28;20678;-78
2024/02/23 09:59:12;;;;;;;8.73;1.20;;;;;;;6.33;100.00;99183.53;5002271;28;20574;-77
2024/02/23 10:01:38;;;;;;;4.30;1.17;;;;;;;6.35;100.00;99186.69;5014289;28;20045;-77
2024/02/23 10:04:06;;;;;;;4.78;1.58;;;;;;;6.39;100.00;99182.41;4975256;28;20025;-79
2024/02/23 10:06:32;;;;;;;5.00;1.42;;;;;;;6.39;100.00;99177.91;5000952;28;20095;-78
2024/02/23 10:08:57;;;;;;;5.15;1.08;;;;;;;6.40;100.00;99197.28;5003473;28;20041;-76
2024/02/23 10:11:25;;;;;;;4.30;1.20;;;;;;;6.44;100.00;99201.78;4997523;28;20034;-78
2024/02/23 10:13:53;;;;;;;4.30;1.65;;;;;;;6.45;100.00;99206.03;5002343;28;20049;-78
2024/02/23 10:16:20;;;;;;;4.50;1.10;;;;;;;6.49;100.00;99214.22;5004659;28;20038;-79
2024/02/23 10:18:48;;;;;;;5.82;1.60;;;;;;;6.50;100.00;99210.50;5004918;28;20049;-80
2024/02/23 10:21:15;;;;;;;6.03;1.13;;;;;;;6.70;100.00;99210.31;5005932;28;20565;-79
2024/02/23 10:23:41;;;;;;;3.63;1.15;;;;;;;6.76;100.00;99217.16;5006578;28;20042;-79
2024/02/23 10:26:08;;;;;;;4.15;1.13;;;;;;;6.82;100.00;99213.38;5006944;28;20101;-76
2024/02/23 10:28:38;;;;;;;3.75;1.00;;;;;;;6.90;100.00;99221.81;4999387;28;20054;-79
2024/02/23 10:31:05;;;;;;;3.95;1.23;;;;;;;6.78;100.00;99236.31;4982762;28;20030;-79
2024/02/23 10:33:30;;;;;;;3.35;0.90;;;;;;;6.82;100.00;99242.66;5018563;28;20070;-79
2024/02/23 10:35:58;;;;;;;5.72;1.27;;;;;;;6.85;100.00;99233.31;4986368;28;20064;-80
2024/02/23 10:38:26;;;;;;;4.53;0.90;;;;;;;6.98;100.00;99237.19;5005733;28;20026;-78
2024/02/23 10:40:56;;;;;;;5.05;1.38;;;;;;;7.01;100.00;99236.63;5003014;28;20045;-79
2024/02/23 10:43:42;;;;;;;4.45;1.17;;;;;;;7.06;100.00;99228.59;5002597;28;20033;-79
2024/02/23 10:46:12;;;;;;;3.30;0.82;;;;;;;7.15;100.00;99234.88;5009997;28;20029;-78
2024/02/23 10:48:40;;;;;;;4.85;1.75;;;;;;;7.13;100.00;99229.03;5002411;28;20037;-79
2024/02/23 10:51:07;;;;;;;4.68;1.00;;;;;;;7.17;100.00;99238.03;5020024;28;20061;-79
2024/02/23 10:53:34;;;;;;;6.40;1.10;;;;;;;7.11;100.00;99242.63;5000512;28;20258;-78
2024/02/23 10:56:00;;;;;;;2.88;0.98;;;;;;;7.17;100.00;99248.69;5008149;28;20052;-78
2024/02/23 10:58:26;;;;;;;5.40;1.02;;;;;;;7.20;100.00;99250.78;5005428;28;20041;-78
2024/02/23 11:01:00;;;;;;;4.45;1.48;;;;;;;7.19;100.00;99246.53;5001955;28;20048;-77
2024/02/23 11:03:29;;;;;;;7.85;0.95;;;;;;;7.20;100.00;99248.13;5008669;28;20037;-79
2024/02/23 11:05:55;;;;;;;4.18;1.05;;;;;;;7.19;100.00;99238.56;5003041;28;20034;-77
2024/02/23 11:08:20;;;;;;;4.55;1.00;;;;;;;7.21;100.00;99241.72;4998876;28;20511;-79
2024/02/23 11:10:51;;;;;;;5.40;1.45;;;;;;;7.19;100.00;99246.53;5001428;28;20037;-77
2024/02/23 11:13:18;;;;;;;5.22;0.90;;;;;;;7.15;100.00;99245.50;4999811;28;20546;-80
2024/02/23 11:15:43;;;;;;;4.57;1.08;;;;;;;7.16;100.00;99259.63;5002836;28;20134;-80
2024/02/23 11:18:42;;;;;;;4.28;1.10;;;;;;;7.08;100.00;99258.38;5005175;28;20030;-78
2024/02/23 11:21:09;;;;;;;6.63;0.95;;;;;;;7.08;100.00;99263.69;4973184;28;20045;-78
2024/02/23 11:23:48;;;;;;;5.38;1.10;;;;;;;7.04;100.00;99257.34;5006314;28;20069;-78
2024/02/23 11:26:14;;;;;;;5.40;0.90;;;;;;;7.05;100.00;99272.25;4998965;28;20422;-77
2024/02/23 11:28:54;;;;;;;3.70;0.90;;;;;;;7.06;100.00;99258.66;5004716;28;20506;-78
2024/02/23 11:31:21;;;;;;;4.63;0.93;;;;;;;7.13;100.00;99271.63;5003414;28;20113;-77
2024/02/23 11:33:49;;;;;;;3.45;1.25;;;;;;;7.01;100.00;99260.56;5002801;28;20637;-78